createdAt,value
2018-05-01T00:00:38.902Z,59.21
2018-05-01T00:03:04.806Z,59.40
2018-05-01T00:05:34.083Z,59.51
2018-05-01T00:07:59.970Z,59.74
2018-05-01T00:10:27.299Z,59.98
2018-05-01T00:12:53.185Z,60.18
2018-05-01T00:15:21.899Z,60.29
2018-05-01T00:17:47.823Z,60.47
2018-05-01T00:20:16.736Z,60.62
2018-05-01T00:22:42.618Z,60.71
2018-05-01T00:25:11.451Z,60.59
2018-05-01T00:27:37.340Z,60.61
2018-05-01T00:30:03.235Z,60.88
2018-05-01T00:32:29.192Z,60.69
2018-05-01T00:34:55.066Z,60.81
2018-05-01T00:37:24.895Z,60.58
2018-05-01T00:39:50.787Z,60.31
2018-05-01T00:42:17.563Z,60.39
2018-05-01T00:44:43.495Z,60.56
2018-05-01T00:47:12.434Z,60.57
2018-05-01T00:49:38.373Z,60.74
2018-05-01T00:52:07.415Z,60.79
2018-05-01T00:54:33.328Z,60.98
2018-05-01T00:57:02.562Z,60.97
2018-05-01T00:59:28.447Z,61.10
2018-05-01T01:01:57.706Z,61.67
2018-05-01T01:04:23.628Z,62.15
2018-05-01T01:06:49.559Z,62.37
2018-05-01T01:09:15.467Z,62.68
2018-05-01T01:11:41.366Z,63.54
2018-05-01T01:14:08.868Z,64.14
2018-05-01T01:16:34.745Z,64.30
2018-05-01T01:19:04.140Z,64.34
2018-05-01T01:21:30.058Z,65.05
2018-05-01T01:23:57.999Z,64.75
2018-05-01T01:26:23.868Z,64.60
2018-05-01T01:28:52.972Z,64.80
2018-05-01T01:31:18.832Z,65.20
2018-05-01T01:33:48.238Z,65.21
2018-05-01T01:36:13.938Z,65.11
2018-05-01T01:38:42.851Z,65.27
2018-05-01T01:41:08.591Z,64.86
2018-05-01T01:43:34.323Z,65.38
2018-05-01T01:46:00.044Z,65.30
2018-05-01T01:48:25.776Z,65.15
2018-05-01T01:50:53.591Z,65.29
2018-05-01T01:53:19.318Z,65.49
2018-05-01T01:55:47.825Z,65.74
2018-05-01T01:58:13.608Z,66.33
2018-05-01T02:00:39.345Z,66.74
2018-05-01T02:03:05.074Z,66.73
2018-05-01T02:05:30.864Z,66.82
2018-05-01T02:07:58.709Z,66.81
2018-05-01T02:10:24.433Z,66.51
2018-05-01T02:12:50.157Z,66.68
2018-05-01T02:15:15.883Z,66.91
2018-05-01T02:17:41.648Z,67.08
2018-05-01T02:20:07.383Z,67.39
2018-05-01T02:22:33.136Z,68.21
2018-05-01T02:24:58.831Z,68.31
2018-05-01T02:27:24.555Z,68.12
2018-05-01T02:29:50.316Z,68.33
2018-05-01T02:32:16.043Z,68.82
2018-05-01T02:34:41.783Z,68.80
2018-05-01T02:37:07.521Z,68.49
2018-05-01T02:39:33.252Z,68.79
2018-05-01T02:41:58.996Z,68.37
2018-05-01T02:44:24.710Z,68.54
2018-05-01T02:46:50.514Z,68.83
2018-05-01T02:49:16.179Z,68.33
2018-05-01T02:51:41.916Z,68.01
2018-05-01T02:54:07.700Z,67.62
2018-05-01T02:56:33.427Z,67.88
2018-05-01T02:58:59.167Z,67.86
2018-05-01T03:01:24.873Z,68.44
2018-05-01T03:03:50.598Z,67.93
2018-05-01T03:06:16.329Z,68.13
2018-05-01T03:08:42.035Z,67.84
2018-05-01T03:11:07.807Z,67.32
2018-05-01T03:13:33.526Z,67.64
2018-05-01T03:15:59.239Z,67.61
2018-05-01T03:18:24.984Z,67.55
2018-05-01T03:20:50.723Z,67.55
2018-05-01T03:23:16.553Z,67.73
2018-05-01T03:25:42.292Z,67.29
2018-05-01T03:28:08.041Z,66.88
2018-05-01T03:30:33.771Z,66.49
2018-05-01T03:32:59.524Z,67.03
2018-05-01T03:35:25.360Z,66.94
2018-05-01T03:37:51.067Z,66.43
2018-05-01T03:40:16.780Z,65.99
2018-05-01T03:42:42.506Z,65.82
2018-05-01T03:45:08.228Z,65.52
2018-05-01T03:47:33.963Z,65.87
2018-05-01T03:49:59.716Z,66.10
2018-05-01T03:52:25.437Z,65.91
2018-05-01T03:54:51.136Z,66.17
2018-05-01T03:57:16.879Z,65.98
2018-05-01T03:59:42.618Z,66.19
2018-05-01T04:02:08.346Z,66.15
2018-05-01T04:04:34.065Z,65.81
2018-05-01T04:06:59.797Z,65.88
2018-05-01T04:09:25.507Z,66.06
2018-05-01T04:11:51.225Z,66.16
2018-05-01T04:14:16.947Z,66.58
2018-05-01T04:16:44.058Z,66.92
2018-05-01T04:19:09.780Z,66.59
2018-05-01T04:21:39.036Z,67.19
2018-05-01T04:24:04.803Z,67.40
2018-05-01T04:26:30.513Z,67.35
2018-05-01T04:28:56.249Z,67.77
2018-05-01T04:31:21.972Z,68.19
2018-05-01T04:33:51.026Z,68.87
2018-05-01T04:36:16.746Z,69.24
2018-05-01T04:38:44.782Z,69.49
2018-05-01T04:41:10.534Z,69.56
2018-05-01T04:43:39.137Z,69.01
2018-05-01T04:46:04.812Z,69.47
2018-05-01T04:48:30.527Z,69.71
2018-05-01T04:50:56.404Z,69.08
2018-05-01T04:53:22.139Z,68.33
2018-05-01T04:55:50.683Z,68.03
2018-05-01T04:58:16.442Z,68.48
2018-05-01T05:00:42.143Z,68.28
2018-05-01T05:03:07.847Z,68.34
2018-05-01T05:05:33.601Z,67.97
2018-05-01T05:08:01.420Z,68.38
2018-05-01T05:10:27.856Z,67.67
2018-05-01T05:12:53.616Z,67.55
2018-05-01T05:15:19.333Z,67.33
2018-05-01T05:17:45.079Z,67.35
2018-05-01T05:20:10.796Z,67.77
2018-05-01T05:22:36.512Z,67.58
2018-05-01T05:25:02.243Z,67.21
2018-05-01T05:27:27.969Z,66.95
2018-05-01T05:29:53.700Z,66.75
2018-05-01T05:32:19.405Z,66.78
2018-05-01T05:34:45.121Z,66.85
2018-05-01T05:37:10.817Z,67.21
2018-05-01T05:39:36.502Z,67.14
2018-05-01T05:42:02.291Z,66.91
2018-05-01T05:44:28.025Z,66.93
2018-05-01T05:46:53.740Z,66.49
2018-05-01T05:49:19.488Z,66.35
2018-05-01T05:51:45.221Z,66.17
2018-05-01T05:54:10.934Z,66.30
2018-05-01T05:56:36.636Z,65.73
2018-05-01T05:59:02.380Z,65.84
2018-05-01T06:01:28.102Z,65.47
2018-05-01T06:03:53.823Z,65.73
2018-05-01T06:06:19.530Z,65.53
2018-05-01T06:08:45.241Z,65.31
2018-05-01T06:11:10.956Z,65.83
2018-05-01T06:13:37.627Z,65.58
2018-05-01T06:16:03.430Z,64.70
2018-05-01T06:18:29.167Z,65.14
2018-05-01T06:20:54.872Z,65.22
2018-05-01T06:23:20.577Z,65.43
2018-05-01T06:25:46.634Z,65.01
2018-05-01T06:28:12.493Z,65.27
2018-05-01T06:30:38.244Z,65.34
2018-05-01T06:33:04.021Z,65.23
2018-05-01T06:35:29.748Z,65.31
2018-05-01T06:37:55.507Z,64.47
2018-05-01T06:40:21.273Z,63.91
2018-05-01T06:42:47.003Z,63.97
2018-05-01T06:45:12.701Z,64.04
2018-05-01T06:47:38.415Z,63.11
2018-05-01T06:50:04.164Z,62.70
2018-05-01T06:52:29.879Z,61.87
2018-05-01T06:54:55.611Z,61.81
2018-05-01T06:57:21.334Z,60.20
2018-05-01T06:59:47.061Z,61.17
2018-05-01T07:02:12.827Z,60.54
2018-05-01T07:04:38.608Z,59.69
2018-05-01T07:07:04.289Z,58.88
2018-05-01T07:09:30.054Z,57.96
2018-05-01T07:11:55.786Z,57.61
2018-05-01T07:14:21.515Z,58.29
2018-05-01T07:16:47.239Z,60.08
2018-05-01T07:19:12.993Z,59.08
2018-05-01T07:21:41.983Z,59.42
2018-05-01T07:24:07.716Z,59.53
2018-05-01T07:26:36.795Z,59.44
2018-05-01T07:29:02.529Z,58.79
2018-05-01T07:31:31.668Z,59.10
2018-05-01T07:33:57.361Z,59.22
2018-05-01T07:36:25.377Z,59.47
2018-05-01T07:38:51.112Z,59.65
2018-05-01T07:41:19.564Z,59.75
2018-05-01T07:43:45.529Z,60.12
2018-05-01T07:46:11.255Z,60.59
2018-05-01T07:48:39.122Z,60.25
2018-05-01T07:51:04.899Z,59.17
2018-05-01T07:53:31.732Z,58.69
2018-05-01T07:55:57.453Z,58.17
2018-05-01T07:58:25.975Z,57.42
2018-05-01T08:00:51.719Z,58.00
2018-05-01T08:03:17.406Z,57.31
2018-05-01T08:05:43.248Z,57.35
2018-05-01T08:08:08.955Z,57.40
2018-05-01T08:10:36.803Z,56.37
2018-05-01T08:13:02.537Z,56.78
2018-05-01T08:15:28.255Z,57.07
2018-05-01T08:17:53.967Z,56.78
2018-05-01T08:20:19.659Z,57.38
2018-05-01T08:22:45.403Z,56.88
2018-05-01T08:25:11.110Z,55.40
2018-05-01T08:27:36.843Z,54.97
2018-05-01T08:30:02.566Z,55.66
2018-05-01T08:32:28.304Z,55.09
2018-05-01T08:34:54.020Z,53.34
2018-05-01T08:37:20.770Z,52.60
2018-05-01T08:39:46.528Z,52.00
2018-05-01T08:42:12.236Z,53.58
2018-05-01T08:44:37.935Z,54.38
2018-05-01T08:47:03.650Z,56.01
2018-05-01T08:49:35.011Z,56.57
2018-05-01T08:52:00.783Z,54.60
2018-05-01T08:54:26.519Z,55.11
2018-05-01T08:56:52.219Z,54.90
2018-05-01T08:59:17.969Z,55.74
2018-05-01T09:01:43.687Z,55.06
2018-05-01T09:04:09.408Z,55.87
2018-05-01T09:06:35.123Z,55.98
2018-05-01T09:09:00.854Z,54.87
2018-05-01T09:11:29.019Z,54.32
2018-05-01T09:13:54.728Z,55.36
2018-05-01T09:16:20.451Z,55.22
2018-05-01T09:18:46.174Z,55.27
2018-05-01T09:21:11.885Z,55.74
2018-05-01T09:23:37.603Z,54.48
2018-05-01T09:26:03.557Z,54.70
2018-05-01T09:28:29.311Z,54.92
2018-05-01T09:30:55.067Z,54.56
2018-05-01T09:33:20.780Z,54.09
2018-05-01T09:35:46.507Z,54.65
2018-05-01T09:38:12.246Z,54.99
2018-05-01T09:40:37.943Z,55.25
2018-05-01T09:43:03.683Z,53.53
2018-05-01T09:45:29.416Z,53.47
2018-05-01T09:47:55.172Z,52.33
2018-05-01T09:50:20.895Z,53.22
2018-05-01T09:52:46.744Z,52.96
2018-05-01T09:55:12.640Z,51.54
2018-05-01T09:57:38.544Z,50.68
2018-05-01T10:00:04.437Z,50.60
2018-05-01T10:02:30.359Z,51.34
2018-05-01T10:04:56.304Z,51.59
2018-05-01T10:07:22.195Z,51.45
2018-05-01T10:09:48.073Z,51.61
2018-05-01T10:12:14.027Z,51.47
2018-05-01T10:14:40.651Z,50.96
2018-05-01T10:17:06.620Z,51.00
2018-05-01T10:19:32.530Z,51.33
2018-05-01T10:21:58.467Z,50.98
2018-05-01T10:24:24.348Z,51.49
2018-05-01T10:26:50.251Z,50.27
2018-05-01T10:29:16.143Z,50.52
2018-05-01T10:31:42.088Z,50.75
2018-05-01T10:34:08.053Z,49.90
2018-05-01T10:36:33.992Z,49.17
2018-05-01T10:39:00.009Z,49.14
2018-05-01T10:41:25.840Z,50.16
2018-05-01T10:43:51.741Z,50.84
2018-05-01T10:46:17.732Z,49.35
2018-05-01T10:48:43.608Z,49.33
2018-05-01T10:51:12.451Z,49.75
2018-05-01T10:53:38.380Z,50.44
2018-05-01T10:56:06.915Z,50.68
2018-05-01T10:58:32.811Z,51.96
2018-05-01T11:01:02.227Z,49.75
2018-05-01T11:03:28.148Z,50.19
2018-05-01T11:05:57.745Z,49.54
2018-05-01T11:08:23.636Z,47.60
2018-05-01T11:10:49.535Z,48.37
2018-05-01T11:13:15.416Z,47.61
2018-05-01T11:15:41.328Z,47.36
2018-05-01T11:18:09.075Z,47.36
2018-05-01T11:20:34.966Z,45.68
2018-05-01T11:23:04.210Z,47.83
2018-05-01T11:25:30.096Z,47.52
2018-05-01T11:27:57.971Z,47.79
2018-05-01T11:30:23.879Z,48.67
2018-05-01T11:32:53.286Z,46.43
2018-05-01T11:35:19.173Z,46.54
2018-05-01T11:37:48.335Z,46.74
2018-05-01T11:40:14.337Z,45.99
2018-05-01T11:42:42.052Z,46.06
2018-05-01T11:45:07.964Z,46.02
2018-05-01T11:47:33.879Z,47.04
2018-05-01T11:49:59.718Z,46.16
2018-05-01T11:52:25.614Z,45.86
2018-05-01T11:54:55.157Z,45.15
2018-05-01T11:57:21.036Z,44.91
2018-05-01T11:59:48.968Z,45.24
2018-05-01T12:02:14.888Z,45.90
2018-05-01T12:04:44.016Z,45.27
2018-05-01T12:07:10.036Z,44.07
2018-05-01T12:09:37.774Z,43.75
2018-05-01T12:12:03.684Z,43.26
2018-05-01T12:14:33.631Z,44.23
2018-05-01T12:16:59.486Z,42.16
2018-05-01T12:19:27.520Z,41.83
2018-05-01T12:21:53.407Z,42.40
2018-05-01T12:24:19.306Z,42.58
2018-05-01T12:26:45.219Z,44.05
2018-05-01T12:29:11.127Z,45.52
2018-05-01T12:31:40.795Z,45.98
2018-05-01T12:34:06.675Z,42.96
2018-05-01T12:36:33.887Z,43.21
2018-05-01T12:38:59.715Z,42.99
2018-05-01T12:41:28.713Z,41.83
2018-05-01T12:43:54.612Z,42.83
2018-05-01T12:46:23.327Z,44.02
2018-05-01T12:48:49.255Z,43.19
2018-05-01T12:51:18.619Z,43.55
2018-05-01T12:53:44.583Z,43.03
2018-05-01T12:56:13.499Z,42.03
2018-05-01T12:58:39.383Z,43.09
2018-05-01T13:04:21.943Z,43.70
2018-05-01T13:06:49.222Z,43.61
2018-05-01T13:09:16.440Z,42.69
2018-05-01T13:11:43.681Z,41.06
2018-05-01T13:14:10.899Z,41.37
2018-05-01T13:16:38.101Z,42.49
2018-05-01T13:19:05.313Z,41.55
2018-05-01T13:21:32.432Z,41.63
2018-05-01T13:23:59.721Z,42.39
2018-05-01T13:26:26.842Z,43.51
2018-05-01T13:28:54.079Z,41.55
2018-05-01T13:31:21.239Z,40.65
2018-05-01T13:33:48.409Z,41.51
2018-05-01T13:36:16.155Z,41.22
2018-05-01T13:38:43.327Z,40.49
2018-05-01T13:41:10.513Z,41.32
2018-05-01T13:43:37.735Z,40.71
2018-05-01T13:46:04.964Z,40.82
2018-05-01T13:48:32.195Z,40.08
2018-05-01T13:50:59.475Z,38.81
2018-05-01T13:53:26.659Z,39.20
2018-05-01T13:55:53.848Z,38.36
2018-05-01T13:58:21.044Z,36.35
2018-05-01T14:00:48.181Z,37.77
2018-05-01T14:03:15.374Z,36.00
2018-05-01T14:05:42.964Z,36.74
2018-05-01T14:08:10.143Z,37.04
2018-05-01T14:10:37.343Z,36.55
2018-05-01T14:13:04.623Z,36.06
2018-05-01T14:15:31.923Z,35.49
2018-05-01T14:17:59.224Z,34.91
2018-05-01T14:20:26.460Z,36.92
2018-05-01T14:22:53.724Z,35.38
2018-05-01T14:25:21.104Z,33.60
2018-05-01T14:27:48.307Z,34.82
2018-05-01T14:30:15.466Z,34.90
2018-05-01T14:32:42.644Z,33.33
2018-05-01T14:35:09.883Z,32.35
2018-05-01T14:37:37.089Z,33.38
2018-05-01T14:40:04.287Z,33.43
2018-05-01T14:42:31.564Z,33.32
2018-05-01T14:44:58.738Z,34.03
2018-05-01T14:47:25.907Z,33.66
2018-05-01T14:49:53.151Z,32.95
2018-05-01T14:52:20.348Z,33.59
2018-05-01T14:54:47.608Z,33.12
2018-05-01T14:57:14.800Z,32.83
2018-05-01T14:59:41.995Z,32.81
2018-05-01T15:02:09.159Z,32.34
2018-05-01T15:04:36.462Z,31.86
2018-05-01T15:07:03.643Z,31.04
2018-05-01T15:09:30.868Z,29.94
2018-05-01T15:11:58.146Z,31.54
2018-05-01T15:14:25.355Z,31.11
2018-05-01T15:16:52.659Z,30.59
2018-05-01T15:22:29.560Z,31.06
2018-05-01T15:24:55.426Z,29.99
2018-05-01T15:27:21.398Z,30.11
2018-05-01T15:29:47.314Z,31.63
2018-05-01T15:32:13.230Z,31.38
2018-05-01T15:34:39.146Z,32.56
2018-05-01T15:37:05.024Z,30.79
2018-05-01T15:39:30.943Z,33.19
2018-05-01T15:41:56.888Z,33.73
2018-05-01T15:44:22.787Z,32.45
2018-05-01T15:46:49.859Z,32.31
2018-05-01T15:49:15.790Z,31.85
2018-05-01T15:51:41.794Z,33.74
2018-05-01T15:54:07.647Z,34.27
2018-05-01T15:56:33.579Z,34.84
2018-05-01T15:58:59.505Z,35.13
2018-05-01T16:01:25.445Z,34.86
2018-05-01T16:03:51.356Z,34.70
2018-05-01T16:06:17.246Z,34.15
2018-05-01T16:08:43.135Z,34.89
2018-05-01T16:11:09.028Z,34.93
2018-05-01T16:13:34.956Z,34.05
2018-05-01T16:16:00.831Z,34.33
2018-05-01T16:18:26.879Z,33.03
2018-05-01T16:20:52.774Z,33.79
2018-05-01T16:23:18.689Z,34.30
2018-05-01T16:25:44.648Z,34.80
2018-05-01T16:28:10.510Z,34.49
2018-05-01T16:30:36.439Z,34.30
2018-05-01T16:33:02.385Z,34.59
2018-05-01T16:35:28.311Z,34.30
2018-05-01T16:37:56.049Z,33.10
2018-05-01T16:40:22.042Z,33.43
2018-05-01T16:42:50.139Z,34.10
2018-05-01T16:45:16.056Z,34.44
2018-05-01T16:47:48.767Z,33.77
2018-05-01T16:50:14.649Z,34.28
2018-05-01T16:52:40.553Z,35.12
2018-05-01T16:55:06.505Z,33.90
2018-05-01T16:57:34.708Z,35.29
2018-05-01T17:00:00.619Z,35.99
2018-05-01T17:02:26.538Z,36.51
2018-05-01T17:04:52.427Z,35.87
2018-05-01T17:07:18.306Z,36.17
2018-05-01T17:09:47.728Z,37.05
2018-05-01T17:12:13.644Z,37.34
2018-05-01T17:14:42.123Z,38.12
2018-05-01T17:17:08.096Z,38.81
2018-05-01T17:19:35.543Z,38.47
2018-05-01T17:22:01.470Z,38.42
2018-05-01T17:24:31.097Z,38.68
2018-05-01T17:26:57.031Z,39.30
2018-05-01T17:29:26.441Z,38.95
2018-05-01T17:31:52.369Z,39.66
2018-05-01T17:34:20.152Z,39.97
2018-05-01T17:36:46.051Z,39.94
2018-05-01T17:39:11.937Z,40.05
2018-05-01T17:41:37.833Z,39.93
2018-05-01T17:44:03.726Z,40.81
2018-05-01T17:46:31.664Z,40.23
2018-05-01T17:48:57.583Z,40.63
2018-05-01T17:51:27.074Z,41.87
2018-05-01T17:53:52.933Z,41.63
2018-05-01T17:56:20.762Z,42.22
2018-05-01T17:58:46.663Z,42.38
2018-05-01T18:01:15.684Z,42.55
2018-05-01T18:03:41.585Z,43.49
2018-05-01T18:06:10.806Z,43.82
2018-05-01T18:08:36.768Z,44.63
2018-05-01T18:11:05.975Z,45.01
2018-05-01T18:13:31.851Z,45.44
2018-05-01T18:15:57.760Z,45.63
2018-05-01T18:18:23.719Z,46.06
2018-05-01T18:20:49.600Z,46.15
2018-05-01T18:23:16.575Z,46.72
2018-05-01T18:25:42.449Z,47.23
2018-05-01T18:28:11.666Z,47.37
2018-05-01T18:30:37.622Z,47.92
2018-05-01T18:33:06.019Z,47.81
2018-05-01T18:35:31.945Z,48.12
2018-05-01T18:38:00.874Z,48.23
2018-05-01T18:40:26.836Z,47.59
2018-05-01T18:42:56.513Z,48.63
2018-05-01T18:45:29.186Z,48.26
2018-05-01T18:48:01.810Z,48.75
2018-05-01T18:50:30.188Z,50.06
2018-05-01T18:52:54.092Z,50.18
2018-05-01T18:55:20.032Z,50.07
2018-05-01T18:57:45.971Z,50.59
2018-05-01T19:00:11.883Z,51.62
2018-05-01T19:02:38.996Z,51.68
2018-05-01T19:05:04.929Z,52.35
2018-05-01T19:07:37.468Z,52.51
2018-05-01T19:10:04.355Z,53.03
2018-05-01T19:12:30.292Z,52.93
2018-05-01T19:14:56.479Z,52.18
2018-05-01T19:17:22.405Z,52.24
2018-05-01T19:19:48.333Z,50.68
2018-05-01T19:22:14.286Z,51.37
2018-05-01T19:24:40.219Z,51.28
2018-05-01T19:27:06.113Z,52.44
2018-05-01T19:29:32.022Z,53.47
2018-05-01T19:31:57.925Z,54.02
2018-05-01T19:34:23.885Z,54.97
2018-05-01T19:36:49.822Z,55.46
2018-05-01T19:39:15.722Z,55.49
2018-05-01T19:41:41.974Z,55.60
2018-05-01T19:44:07.848Z,55.79
2018-05-01T19:46:37.554Z,55.89
2018-05-01T19:49:03.418Z,55.44
2018-05-01T19:51:32.794Z,54.99
2018-05-01T19:53:58.727Z,55.22
2018-05-01T19:56:26.138Z,55.93
2018-05-01T19:58:52.016Z,56.41
2018-05-01T20:01:24.735Z,56.53
2018-05-01T20:03:50.657Z,56.64
2018-05-01T20:06:16.615Z,56.60
2018-05-01T20:08:42.525Z,56.59
2018-05-01T20:11:08.455Z,56.74
2018-05-01T20:13:34.395Z,57.12
2018-05-01T20:16:00.273Z,56.76
2018-05-01T20:18:27.913Z,56.15
2018-05-01T20:20:53.821Z,57.09
2018-05-01T20:23:22.113Z,57.25
2018-05-01T20:25:47.966Z,57.43
2018-05-01T20:28:17.547Z,57.99
2018-05-01T20:30:43.478Z,58.11
2018-05-01T20:33:11.411Z,58.71
2018-05-01T20:35:37.278Z,58.88
2018-05-01T20:38:06.436Z,59.11
2018-05-01T20:40:32.364Z,58.69
2018-05-01T20:42:58.274Z,58.86
2018-05-01T20:45:24.162Z,58.88
2018-05-01T20:47:50.109Z,59.32
2018-05-01T20:50:17.906Z,59.96
2018-05-01T20:52:43.799Z,60.29
2018-05-01T20:55:13.308Z,60.58
2018-05-01T20:57:39.181Z,61.24
2018-05-01T21:00:07.432Z,61.75
2018-05-01T21:02:33.355Z,62.11
2018-05-01T21:05:02.794Z,62.41
2018-05-01T21:07:28.653Z,62.43
2018-05-01T21:09:56.787Z,62.40
2018-05-01T21:12:22.665Z,62.31
2018-05-01T21:14:52.344Z,62.54
2018-05-01T21:17:18.276Z,62.36
2018-05-01T21:19:44.218Z,62.33
2018-05-01T21:22:10.169Z,62.66
2018-05-01T21:24:36.039Z,62.54
2018-05-01T21:27:03.608Z,62.93
2018-05-01T21:29:29.503Z,62.91
2018-05-01T21:31:58.874Z,62.93
2018-05-01T21:34:24.845Z,62.53
2018-05-01T21:36:54.071Z,62.72
2018-05-01T21:39:19.968Z,62.74
2018-05-01T21:41:47.208Z,62.64
2018-05-01T21:44:13.085Z,62.60
2018-05-01T21:46:41.798Z,63.02
2018-05-01T21:49:07.703Z,63.16
2018-05-01T21:51:36.447Z,63.46
2018-05-01T21:54:02.373Z,63.88
2018-05-01T21:56:28.239Z,63.90
2018-05-01T21:58:54.145Z,63.89
2018-05-01T22:01:20.082Z,64.14
2018-05-01T22:03:48.601Z,64.64
2018-05-01T22:06:14.510Z,64.74
2018-05-01T22:08:44.319Z,65.04
2018-05-01T22:11:10.241Z,65.04
2018-05-01T22:13:39.519Z,65.20
2018-05-01T22:16:05.431Z,65.37
2018-05-01T22:18:33.256Z,65.27
2018-05-01T22:20:59.114Z,65.40
2018-05-01T22:23:28.164Z,65.49
2018-05-01T22:25:54.047Z,65.50
2018-05-01T22:28:23.247Z,65.45
2018-05-01T22:30:49.130Z,65.47
2018-05-01T22:33:15.050Z,65.75
2018-05-01T22:35:40.965Z,66.05
2018-05-01T22:38:06.860Z,66.25
2018-05-01T22:40:33.659Z,66.47
2018-05-01T22:42:59.527Z,66.85
2018-05-01T22:45:28.547Z,67.48
2018-05-01T22:47:54.496Z,67.54
2018-05-01T22:50:24.116Z,67.22
2018-05-01T22:52:50.039Z,67.05
2018-05-01T22:55:19.395Z,66.90
2018-05-01T22:57:45.292Z,67.04
2018-05-01T23:00:12.906Z,67.13
2018-05-01T23:02:38.794Z,67.06
2018-05-01T23:05:07.581Z,66.87
2018-05-01T23:07:33.504Z,67.09
2018-05-01T23:09:59.448Z,67.23
2018-05-01T23:12:25.331Z,67.51
2018-05-01T23:14:51.321Z,67.36
2018-05-01T23:17:20.745Z,67.29
2018-05-01T23:19:46.618Z,67.81
2018-05-01T23:22:13.785Z,68.11
2018-05-01T23:24:39.663Z,68.24
2018-05-01T23:27:08.478Z,68.03
2018-05-01T23:29:34.396Z,68.17
2018-05-01T23:32:03.127Z,68.40
2018-05-01T23:34:29.025Z,68.12
2018-05-01T23:36:58.018Z,67.75
2018-05-01T23:39:23.901Z,68.48
2018-05-01T23:41:53.314Z,68.26
2018-05-01T23:44:19.232Z,67.86
2018-05-01T23:46:45.131Z,67.73
2018-05-01T23:49:11.013Z,68.00
2018-05-01T23:51:36.895Z,68.42
2018-05-01T23:54:04.447Z,68.67
2018-05-01T23:56:30.354Z,68.50
2018-05-01T23:58:59.773Z,68.45
